sensor_id;sensor_type;location;lat;lon;timestamp;P1;durP1;ratioP1;P2;durP2;ratioP2
74510;SDS011;62991;50.040;18.400;2023-07-13T00:00:06;7.40;;;2.35;;
74510;SDS011;62991;50.040;18.400;2023-07-13T00:03:10;4.45;;;1.88;;
74510;SDS011;62991;50.040;18.400;2023-07-13T00:06:13;5.22;;;2.42;;
74510;SDS011;62991;50.040;18.400;2023-07-13T00:09:14;8.07;;;2.70;;
74510;SDS011;62991;50.040;18.400;2023-07-13T00:12:23;4.47;;;2.35;;
74510;SDS011;62991;50.040;18.400;2023-07-13T00:15:28;5.75;;;2.50;;
74510;SDS011;62991;50.040;18.400;2023-07-13T00:18:31;4.32;;;2.38;;
74510;SDS011;62991;50.040;18.400;2023-07-13T00:21:32;5.20;;;2.45;;
74510;SDS011;62991;50.040;18.400;2023-07-13T00:24:33;5.25;;;2.53;;
74510;SDS011;62991;50.040;18.400;2023-07-13T00:27:35;4.88;;;2.40;;
74510;SDS011;62991;50.040;18.400;2023-07-13T00:30:36;5.55;;;2.40;;
74510;SDS011;62991;50.040;18.400;2023-07-13T00:33:37;4.82;;;2.30;;
74510;SDS011;62991;50.040;18.400;2023-07-13T00:36:38;5.45;;;2.42;;
74510;SDS011;62991;50.040;18.400;2023-07-13T00:39:39;4.35;;;2.40;;
74510;SDS011;62991;50.040;18.400;2023-07-13T00:42:40;5.25;;;2.75;;
74510;SDS011;62991;50.040;18.400;2023-07-13T00:48:45;6.32;;;2.85;;
74510;SDS011;62991;50.040;18.400;2023-07-13T00:51:49;7.03;;;3.08;;
74510;SDS011;62991;50.040;18.400;2023-07-13T00:54:56;5.07;;;2.65;;
74510;SDS011;62991;50.040;18.400;2023-07-13T00:57:57;5.30;;;3.67;;
74510;SDS011;62991;50.040;18.400;2023-07-13T01:00:59;5.95;;;3.30;;
74510;SDS011;62991;50.040;18.400;2023-07-13T01:03:59;7.82;;;3.78;;
74510;SDS011;62991;50.040;18.400;2023-07-13T01:07:00;9.55;;;3.92;;
74510;SDS011;62991;50.040;18.400;2023-07-13T01:10:01;7.03;;;4.00;;
74510;SDS011;62991;50.040;18.400;2023-07-13T01:13:02;9.20;;;4.40;;
74510;SDS011;62991;50.040;18.400;2023-07-13T01:16:05;7.15;;;3.78;;
74510;SDS011;62991;50.040;18.400;2023-07-13T01:22:25;4.30;;;3.03;;
74510;SDS011;62991;50.040;18.400;2023-07-13T01:25:27;5.63;;;2.45;;
74510;SDS011;62991;50.040;18.400;2023-07-13T01:28:27;5.50;;;2.88;;
74510;SDS011;62991;50.040;18.400;2023-07-13T01:31:28;5.65;;;2.70;;
74510;SDS011;62991;50.040;18.400;2023-07-13T01:34:29;4.72;;;2.40;;
74510;SDS011;62991;50.040;18.400;2023-07-13T01:37:30;7.63;;;2.78;;
74510;SDS011;62991;50.040;18.400;2023-07-13T01:40:34;6.70;;;2.80;;
74510;SDS011;62991;50.040;18.400;2023-07-13T01:43:35;3.95;;;2.17;;
74510;SDS011;62991;50.040;18.400;2023-07-13T01:46:36;6.00;;;3.13;;
74510;SDS011;62991;50.040;18.400;2023-07-13T01:49:37;5.30;;;3.25;;
74510;SDS011;62991;50.040;18.400;2023-07-13T01:52:38;7.45;;;2.97;;
74510;SDS011;62991;50.040;18.400;2023-07-13T01:55:38;8.90;;;3.42;;
74510;SDS011;62991;50.040;18.400;2023-07-13T01:58:39;6.40;;;3.58;;
74510;SDS011;62991;50.040;18.400;2023-07-13T02:01:40;6.20;;;3.17;;
74510;SDS011;62991;50.040;18.400;2023-07-13T02:04:40;8.55;;;3.55;;
74510;SDS011;62991;50.040;18.400;2023-07-13T02:07:41;6.00;;;3.35;;
74510;SDS011;62991;50.040;18.400;2023-07-13T02:10:42;5.75;;;3.20;;
74510;SDS011;62991;50.040;18.400;2023-07-13T02:13:43;8.68;;;3.33;;
74510;SDS011;62991;50.040;18.400;2023-07-13T02:16:44;5.57;;;3.53;;
74510;SDS011;62991;50.040;18.400;2023-07-13T02:19:44;7.32;;;3.67;;
74510;SDS011;62991;50.040;18.400;2023-07-13T02:22:45;7.00;;;4.03;;
74510;SDS011;62991;50.040;18.400;2023-07-13T02:25:46;7.07;;;3.60;;
74510;SDS011;62991;50.040;18.400;2023-07-13T02:28:47;7.32;;;3.55;;
74510;SDS011;62991;50.040;18.400;2023-07-13T02:31:47;7.15;;;3.67;;
74510;SDS011;62991;50.040;18.400;2023-07-13T02:34:48;5.82;;;3.05;;
74510;SDS011;62991;50.040;18.400;2023-07-13T02:37:49;6.13;;;3.25;;
74510;SDS011;62991;50.040;18.400;2023-07-13T02:40:50;6.28;;;3.47;;
74510;SDS011;62991;50.040;18.400;2023-07-13T02:43:51;5.50;;;3.30;;
74510;SDS011;62991;50.040;18.400;2023-07-13T02:46:52;6.13;;;3.47;;
74510;SDS011;62991;50.040;18.400;2023-07-13T02:49:52;7.32;;;3.55;;
74510;SDS011;62991;50.040;18.400;2023-07-13T02:52:53;5.47;;;3.42;;
74510;SDS011;62991;50.040;18.400;2023-07-13T02:55:54;6.57;;;3.90;;
74510;SDS011;62991;50.040;18.400;2023-07-13T02:58:55;6.50;;;3.72;;
74510;SDS011;62991;50.040;18.400;2023-07-13T03:01:56;7.45;;;3.72;;
74510;SDS011;62991;50.040;18.400;2023-07-13T03:04:56;6.70;;;3.67;;
74510;SDS011;62991;50.040;18.400;2023-07-13T03:07:57;7.50;;;3.80;;
74510;SDS011;62991;50.040;18.400;2023-07-13T03:10:59;8.27;;;4.10;;
74510;SDS011;62991;50.040;18.400;2023-07-13T03:14:04;8.68;;;3.67;;
74510;SDS011;62991;50.040;18.400;2023-07-13T03:17:04;6.50;;;3.83;;
74510;SDS011;62991;50.040;18.400;2023-07-13T03:20:05;6.75;;;3.45;;
74510;SDS011;62991;50.040;18.400;2023-07-13T03:23:07;7.30;;;3.55;;
74510;SDS011;62991;50.040;18.400;2023-07-13T03:26:08;8.95;;;4.13;;
74510;SDS011;62991;50.040;18.400;2023-07-13T03:29:14;8.25;;;4.03;;
74510;SDS011;62991;50.040;18.400;2023-07-13T03:32:15;8.27;;;3.60;;
74510;SDS011;62991;50.040;18.400;2023-07-13T03:35:16;6.93;;;3.80;;
74510;SDS011;62991;50.040;18.400;2023-07-13T03:38:17;7.72;;;3.55;;
74510;SDS011;62991;50.040;18.400;2023-07-13T03:41:17;8.13;;;3.72;;
74510;SDS011;62991;50.040;18.400;2023-07-13T03:44:19;6.22;;;3.72;;
74510;SDS011;62991;50.040;18.400;2023-07-13T03:47:19;6.53;;;3.10;;
74510;SDS011;62991;50.040;18.400;2023-07-13T03:50:20;6.05;;;3.08;;
74510;SDS011;62991;50.040;18.400;2023-07-13T03:53:21;8.68;;;3.45;;
74510;SDS011;62991;50.040;18.400;2023-07-13T03:56:21;4.90;;;2.92;;
74510;SDS011;62991;50.040;18.400;2023-07-13T03:59:22;6.68;;;3.13;;
74510;SDS011;62991;50.040;18.400;2023-07-13T04:02:23;7.22;;;3.28;;
74510;SDS011;62991;50.040;18.400;2023-07-13T04:05:24;8.68;;;3.67;;
74510;SDS011;62991;50.040;18.400;2023-07-13T04:08:28;7.35;;;3.35;;
74510;SDS011;62991;50.040;18.400;2023-07-13T04:11:35;5.95;;;3.47;;
74510;SDS011;62991;50.040;18.400;2023-07-13T04:14:37;9.13;;;3.92;;
74510;SDS011;62991;50.040;18.400;2023-07-13T04:17:37;7.68;;;4.53;;
74510;SDS011;62991;50.040;18.400;2023-07-13T04:20:38;8.75;;;4.43;;
74510;SDS011;62991;50.040;18.400;2023-07-13T04:23:39;9.55;;;3.88;;
74510;SDS011;62991;50.040;18.400;2023-07-13T04:26:40;10.52;;;4.20;;
74510;SDS011;62991;50.040;18.400;2023-07-13T04:29:40;6.25;;;3.33;;
74510;SDS011;62991;50.040;18.400;2023-07-13T04:32:41;5.95;;;3.45;;
74510;SDS011;62991;50.040;18.400;2023-07-13T04:35:43;6.53;;;4.00;;
74510;SDS011;62991;50.040;18.400;2023-07-13T04:38:46;13.05;;;4.18;;
74510;SDS011;62991;50.040;18.400;2023-07-13T04:41:47;7.28;;;4.07;;
74510;SDS011;62991;50.040;18.400;2023-07-13T04:44:49;10.70;;;4.20;;
74510;SDS011;62991;50.040;18.400;2023-07-13T04:47:50;8.00;;;4.30;;
74510;SDS011;62991;50.040;18.400;2023-07-13T04:50:54;7.85;;;4.28;;
74510;SDS011;62991;50.040;18.400;2023-07-13T04:53:57;10.05;;;4.38;;
74510;SDS011;62991;50.040;18.400;2023-07-13T04:56:57;8.60;;;3.70;;
74510;SDS011;62991;50.040;18.400;2023-07-13T04:59:58;7.30;;;3.72;;
74510;SDS011;62991;50.040;18.400;2023-07-13T05:03:01;6.85;;;3.80;;
74510;SDS011;62991;50.040;18.400;2023-07-13T05:06:03;7.32;;;3.80;;
74510;SDS011;62991;50.040;18.400;2023-07-13T05:09:06;6.57;;;3.67;;
74510;SDS011;62991;50.040;18.400;2023-07-13T05:12:08;7.18;;;3.83;;
74510;SDS011;62991;50.040;18.400;2023-07-13T05:15:09;9.85;;;4.63;;
74510;SDS011;62991;50.040;18.400;2023-07-13T05:18:11;74.47;;;28.80;;
74510;SDS011;62991;50.040;18.400;2023-07-13T05:21:11;44.30;;;15.65;;
74510;SDS011;62991;50.040;18.400;2023-07-13T05:24:12;35.63;;;12.60;;
74510;SDS011;62991;50.040;18.400;2023-07-13T05:27:13;10.27;;;4.90;;
74510;SDS011;62991;50.040;18.400;2023-07-13T05:30:13;32.42;;;14.10;;
74510;SDS011;62991;50.040;18.400;2023-07-13T05:33:14;44.65;;;19.55;;
74510;SDS011;62991;50.040;18.400;2023-07-13T05:36:15;22.45;;;9.70;;
74510;SDS011;62991;50.040;18.400;2023-07-13T05:39:16;16.75;;;7.25;;
74510;SDS011;62991;50.040;18.400;2023-07-13T05:42:17;28.73;;;9.73;;
74510;SDS011;62991;50.040;18.400;2023-07-13T05:45:17;9.00;;;4.97;;
74510;SDS011;62991;50.040;18.400;2023-07-13T05:48:18;10.07;;;4.45;;
74510;SDS011;62991;50.040;18.400;2023-07-13T05:51:19;10.15;;;5.15;;
74510;SDS011;62991;50.040;18.400;2023-07-13T05:54:19;14.15;;;5.10;;
74510;SDS011;62991;50.040;18.400;2023-07-13T05:57:20;11.18;;;4.82;;
74510;SDS011;62991;50.040;18.400;2023-07-13T06:00:21;10.80;;;5.55;;
74510;SDS011;62991;50.040;18.400;2023-07-13T06:03:21;15.77;;;5.43;;
74510;SDS011;62991;50.040;18.400;2023-07-13T06:06:22;7.90;;;4.25;;
74510;SDS011;62991;50.040;18.400;2023-07-13T06:09:23;12.20;;;4.53;;
74510;SDS011;62991;50.040;18.400;2023-07-13T06:12:24;7.28;;;4.55;;
74510;SDS011;62991;50.040;18.400;2023-07-13T06:15:25;8.93;;;4.47;;
74510;SDS011;62991;50.040;18.400;2023-07-13T06:18:25;11.20;;;4.80;;
74510;SDS011;62991;50.040;18.400;2023-07-13T06:21:26;7.72;;;4.28;;
74510;SDS011;62991;50.040;18.400;2023-07-13T06:24:27;7.72;;;4.55;;
74510;SDS011;62991;50.040;18.400;2023-07-13T06:27:27;11.10;;;5.43;;
74510;SDS011;62991;50.040;18.400;2023-07-13T06:30:28;11.30;;;6.00;;
74510;SDS011;62991;50.040;18.400;2023-07-13T06:33:29;11.10;;;5.45;;
74510;SDS011;62991;50.040;18.400;2023-07-13T06:36:30;9.50;;;5.57;;
74510;SDS011;62991;50.040;18.400;2023-07-13T06:39:30;10.00;;;5.30;;
74510;SDS011;62991;50.040;18.400;2023-07-13T06:42:31;9.07;;;5.30;;
74510;SDS011;62991;50.040;18.400;2023-07-13T06:45:34;9.68;;;4.70;;
74510;SDS011;62991;50.040;18.400;2023-07-13T06:48:40;9.45;;;5.53;;
74510;SDS011;62991;50.040;18.400;2023-07-13T06:51:40;9.32;;;4.60;;
74510;SDS011;62991;50.040;18.400;2023-07-13T06:54:41;9.68;;;4.65;;
74510;SDS011;62991;50.040;18.400;2023-07-13T06:57:42;8.80;;;4.53;;
74510;SDS011;62991;50.040;18.400;2023-07-13T07:00:42;10.40;;;5.00;;
74510;SDS011;62991;50.040;18.400;2023-07-13T07:03:43;6.90;;;4.38;;
74510;SDS011;62991;50.040;18.400;2023-07-13T07:06:44;9.07;;;5.18;;
74510;SDS011;62991;50.040;18.400;2023-07-13T07:09:45;13.50;;;5.40;;
74510;SDS011;62991;50.040;18.400;2023-07-13T07:12:46;10.70;;;4.90;;
74510;SDS011;62991;50.040;18.400;2023-07-13T07:15:47;10.35;;;5.43;;
74510;SDS011;62991;50.040;18.400;2023-07-13T07:18:49;9.65;;;5.03;;
74510;SDS011;62991;50.040;18.400;2023-07-13T07:21:50;10.68;;;5.13;;
74510;SDS011;62991;50.040;18.400;2023-07-13T07:24:50;12.05;;;4.68;;
74510;SDS011;62991;50.040;18.400;2023-07-13T07:27:51;9.35;;;5.00;;
74510;SDS011;62991;50.040;18.400;2023-07-13T07:30:52;8.50;;;5.15;;
74510;SDS011;62991;50.040;18.400;2023-07-13T07:33:54;8.13;;;4.93;;
74510;SDS011;62991;50.040;18.400;2023-07-13T07:36:54;10.70;;;5.38;;
74510;SDS011;62991;50.040;18.400;2023-07-13T07:39:57;9.68;;;5.22;;
74510;SDS011;62991;50.040;18.400;2023-07-13T07:42:59;10.13;;;5.82;;
74510;SDS011;62991;50.040;18.400;2023-07-13T07:45:59;11.77;;;5.85;;
74510;SDS011;62991;50.040;18.400;2023-07-13T07:49:00;16.42;;;7.57;;
74510;SDS011;62991;50.040;18.400;2023-07-13T07:52:01;11.18;;;6.00;;
74510;SDS011;62991;50.040;18.400;2023-07-13T07:55:03;7.65;;;4.65;;
74510;SDS011;62991;50.040;18.400;2023-07-13T07:58:05;9.10;;;4.85;;
74510;SDS011;62991;50.040;18.400;2023-07-13T08:01:06;7.68;;;4.55;;
74510;SDS011;62991;50.040;18.400;2023-07-13T08:04:06;8.68;;;4.60;;
74510;SDS011;62991;50.040;18.400;2023-07-13T08:07:07;7.88;;;4.13;;
74510;SDS011;62991;50.040;18.400;2023-07-13T08:10:08;8.98;;;4.28;;
74510;SDS011;62991;50.040;18.400;2023-07-13T08:13:09;9.73;;;5.03;;
74510;SDS011;62991;50.040;18.400;2023-07-13T08:16:10;7.05;;;3.53;;
74510;SDS011;62991;50.040;18.400;2023-07-13T08:19:11;9.30;;;4.55;;
74510;SDS011;62991;50.040;18.400;2023-07-13T08:22:12;9.75;;;4.38;;
74510;SDS011;62991;50.040;18.400;2023-07-13T08:25:13;11.32;;;4.72;;
74510;SDS011;62991;50.040;18.400;2023-07-13T08:28:13;8.40;;;4.30;;
74510;SDS011;62991;50.040;18.400;2023-07-13T08:31:15;10.40;;;4.18;;
74510;SDS011;62991;50.040;18.400;2023-07-13T08:34:15;8.32;;;4.55;;
74510;SDS011;62991;50.040;18.400;2023-07-13T08:37:16;14.20;;;5.38;;
74510;SDS011;62991;50.040;18.400;2023-07-13T08:40:18;15.40;;;4.80;;
74510;SDS011;62991;50.040;18.400;2023-07-13T08:43:28;10.75;;;4.85;;
74510;SDS011;62991;50.040;18.400;2023-07-13T08:46:38;7.47;;;4.53;;
74510;SDS011;62991;50.040;18.400;2023-07-13T08:49:41;12.32;;;4.88;;
74510;SDS011;62991;50.040;18.400;2023-07-13T08:52:42;15.32;;;5.32;;
74510;SDS011;62991;50.040;18.400;2023-07-13T08:55:44;10.63;;;4.78;;
74510;SDS011;62991;50.040;18.400;2023-07-13T08:58:46;12.45;;;5.10;;
74510;SDS011;62991;50.040;18.400;2023-07-13T09:02:01;14.45;;;6.30;;
74510;SDS011;62991;50.040;18.400;2023-07-13T09:05:10;7.38;;;3.80;;
74510;SDS011;62991;50.040;18.400;2023-07-13T09:14:47;7.25;;;3.60;;
74510;SDS011;62991;50.040;18.400;2023-07-13T09:17:53;6.03;;;3.78;;
74510;SDS011;62991;50.040;18.400;2023-07-13T09:21:02;5.68;;;3.60;;
74510;SDS011;62991;50.040;18.400;2023-07-13T09:27:39;6.65;;;3.25;;
74510;SDS011;62991;50.040;18.400;2023-07-13T09:34:14;6.05;;;2.15;;
74510;SDS011;62991;50.040;18.400;2023-07-13T09:37:15;3.13;;;2.08;;
74510;SDS011;62991;50.040;18.400;2023-07-13T09:40:24;5.30;;;2.50;;
74510;SDS011;62991;50.040;18.400;2023-07-13T09:43:37;3.78;;;1.80;;
74510;SDS011;62991;50.040;18.400;2023-07-13T09:46:39;3.67;;;2.20;;
74510;SDS011;62991;50.040;18.400;2023-07-13T09:49:44;4.50;;;2.50;;
74510;SDS011;62991;50.040;18.400;2023-07-13T09:52:47;4.28;;;2.38;;
74510;SDS011;62991;50.040;18.400;2023-07-13T09:55:49;4.10;;;2.17;;
74510;SDS011;62991;50.040;18.400;2023-07-13T09:58:50;5.20;;;2.42;;
74510;SDS011;62991;50.040;18.400;2023-07-13T10:01:50;4.25;;;2.58;;
74510;SDS011;62991;50.040;18.400;2023-07-13T10:04:55;4.05;;;2.22;;
74510;SDS011;62991;50.040;18.400;2023-07-13T10:08:01;6.10;;;2.30;;
74510;SDS011;62991;50.040;18.400;2023-07-13T10:14:18;3.70;;;1.67;;
74510;SDS011;62991;50.040;18.400;2023-07-13T10:17:26;3.20;;;1.63;;
74510;SDS011;62991;50.040;18.400;2023-07-13T10:20:30;2.50;;;1.60;;
74510;SDS011;62991;50.040;18.400;2023-07-13T10:23:31;4.13;;;1.90;;
74510;SDS011;62991;50.040;18.400;2023-07-13T10:26:34;8.70;;;3.17;;
74510;SDS011;62991;50.040;18.400;2023-07-13T10:29:39;18.73;;;5.35;;
74510;SDS011;62991;50.040;18.400;2023-07-13T10:32:45;13.18;;;4.57;;
74510;SDS011;62991;50.040;18.400;2023-07-13T10:35:47;6.53;;;3.13;;
74510;SDS011;62991;50.040;18.400;2023-07-13T10:41:55;5.93;;;2.30;;
74510;SDS011;62991;50.040;18.400;2023-07-13T10:45:18;6.55;;;2.70;;
74510;SDS011;62991;50.040;18.400;2023-07-13T10:48:21;4.30;;;2.00;;
74510;SDS011;62991;50.040;18.400;2023-07-13T10:51:24;4.47;;;1.90;;
74510;SDS011;62991;50.040;18.400;2023-07-13T10:54:30;3.00;;;1.75;;
74510;SDS011;62991;50.040;18.400;2023-07-13T10:57:32;3.15;;;2.00;;
74510;SDS011;62991;50.040;18.400;2023-07-13T11:00:43;7.57;;;2.33;;
74510;SDS011;62991;50.040;18.400;2023-07-13T11:04:08;2.85;;;1.52;;
74510;SDS011;62991;50.040;18.400;2023-07-13T11:16:48;2.33;;;1.70;;
74510;SDS011;62991;50.040;18.400;2023-07-13T11:19:50;5.63;;;2.15;;
74510;SDS011;62991;50.040;18.400;2023-07-13T11:29:46;3.30;;;1.85;;
74510;SDS011;62991;50.040;18.400;2023-07-13T11:32:49;5.75;;;2.83;;
74510;SDS011;62991;50.040;18.400;2023-07-13T11:35:59;4.60;;;2.58;;
74510;SDS011;62991;50.040;18.400;2023-07-13T11:39:11;3.80;;;2.60;;
74510;SDS011;62991;50.040;18.400;2023-07-13T11:42:21;6.07;;;3.28;;
74510;SDS011;62991;50.040;18.400;2023-07-13T11:45:22;7.30;;;3.53;;
74510;SDS011;62991;50.040;18.400;2023-07-13T11:48:29;6.40;;;3.42;;
74510;SDS011;62991;50.040;18.400;2023-07-13T11:51:32;6.65;;;2.97;;
74510;SDS011;62991;50.040;18.400;2023-07-13T11:54:43;3.30;;;1.80;;
74510;SDS011;62991;50.040;18.400;2023-07-13T11:57:51;6.10;;;1.80;;
74510;SDS011;62991;50.040;18.400;2023-07-13T12:00:58;3.13;;;1.90;;
74510;SDS011;62991;50.040;18.400;2023-07-13T12:04:02;3.35;;;1.52;;
74510;SDS011;62991;50.040;18.400;2023-07-13T12:07:05;4.60;;;1.98;;
74510;SDS011;62991;50.040;18.400;2023-07-13T12:10:32;4.20;;;2.42;;
74510;SDS011;62991;50.040;18.400;2023-07-13T12:13:37;2.83;;;1.73;;
74510;SDS011;62991;50.040;18.400;2023-07-13T12:16:39;2.72;;;1.92;;
74510;SDS011;62991;50.040;18.400;2023-07-13T12:19:40;4.07;;;1.60;;
74510;SDS011;62991;50.040;18.400;2023-07-13T12:22:44;2.03;;;1.33;;
74510;SDS011;62991;50.040;18.400;2023-07-13T12:25:47;2.85;;;1.55;;
74510;SDS011;62991;50.040;18.400;2023-07-13T12:28:48;3.88;;;1.70;;
74510;SDS011;62991;50.040;18.400;2023-07-13T12:31:56;3.08;;;1.63;;
74510;SDS011;62991;50.040;18.400;2023-07-13T12:35:02;3.65;;;1.77;;
74510;SDS011;62991;50.040;18.400;2023-07-13T12:38:16;2.55;;;1.40;;
74510;SDS011;62991;50.040;18.400;2023-07-13T12:41:17;2.78;;;1.88;;
74510;SDS011;62991;50.040;18.400;2023-07-13T12:44:22;4.28;;;2.85;;
74510;SDS011;62991;50.040;18.400;2023-07-13T12:47:27;8.35;;;3.72;;
74510;SDS011;62991;50.040;18.400;2023-07-13T12:50:40;4.85;;;2.90;;
74510;SDS011;62991;50.040;18.400;2023-07-13T12:53:43;6.97;;;2.80;;
74510;SDS011;62991;50.040;18.400;2023-07-13T12:56:49;5.40;;;2.40;;
74510;SDS011;62991;50.040;18.400;2023-07-13T12:59:53;4.38;;;2.85;;
74510;SDS011;62991;50.040;18.400;2023-07-13T13:02:55;4.55;;;2.85;;
74510;SDS011;62991;50.040;18.400;2023-07-13T13:06:01;4.47;;;2.70;;
74510;SDS011;62991;50.040;18.400;2023-07-13T13:09:03;4.07;;;2.35;;
74510;SDS011;62991;50.040;18.400;2023-07-13T13:12:09;3.58;;;2.50;;
74510;SDS011;62991;50.040;18.400;2023-07-13T13:15:10;5.60;;;2.97;;
74510;SDS011;62991;50.040;18.400;2023-07-13T13:18:14;4.30;;;2.63;;
74510;SDS011;62991;50.040;18.400;2023-07-13T13:21:20;5.32;;;2.42;;
74510;SDS011;62991;50.040;18.400;2023-07-13T13:24:21;4.20;;;2.53;;
74510;SDS011;62991;50.040;18.400;2023-07-13T13:27:24;4.90;;;2.85;;
74510;SDS011;62991;50.040;18.400;2023-07-13T13:30:24;4.57;;;3.08;;
74510;SDS011;62991;50.040;18.400;2023-07-13T13:33:25;4.65;;;2.83;;
74510;SDS011;62991;50.040;18.400;2023-07-13T13:36:26;4.97;;;2.85;;
74510;SDS011;62991;50.040;18.400;2023-07-13T13:42:35;6.30;;;2.83;;
74510;SDS011;62991;50.040;18.400;2023-07-13T13:45:35;5.00;;;2.97;;
74510;SDS011;62991;50.040;18.400;2023-07-13T13:48:36;5.80;;;2.80;;
74510;SDS011;62991;50.040;18.400;2023-07-13T13:51:37;4.65;;;3.00;;
74510;SDS011;62991;50.040;18.400;2023-07-13T13:54:37;5.75;;;2.78;;
74510;SDS011;62991;50.040;18.400;2023-07-13T13:57:38;4.53;;;2.85;;
74510;SDS011;62991;50.040;18.400;2023-07-13T14:00:39;4.10;;;2.60;;
74510;SDS011;62991;50.040;18.400;2023-07-13T14:03:39;5.15;;;2.58;;
74510;SDS011;62991;50.040;18.400;2023-07-13T14:06:41;3.47;;;2.38;;
74510;SDS011;62991;50.040;18.400;2023-07-13T14:09:42;3.30;;;2.47;;
74510;SDS011;62991;50.040;18.400;2023-07-13T14:12:42;4.85;;;2.20;;
74510;SDS011;62991;50.040;18.400;2023-07-13T14:15:45;5.30;;;2.40;;
74510;SDS011;62991;50.040;18.400;2023-07-13T14:18:46;3.55;;;2.25;;
74510;SDS011;62991;50.040;18.400;2023-07-13T14:21:48;5.30;;;2.15;;
74510;SDS011;62991;50.040;18.400;2023-07-13T14:24:49;5.18;;;2.45;;
74510;SDS011;62991;50.040;18.400;2023-07-13T14:27:53;6.45;;;2.15;;
74510;SDS011;62991;50.040;18.400;2023-07-13T14:30:58;5.70;;;2.08;;
74510;SDS011;62991;50.040;18.400;2023-07-13T14:33:59;3.30;;;2.05;;
74510;SDS011;62991;50.040;18.400;2023-07-13T14:37:00;3.70;;;2.33;;
74510;SDS011;62991;50.040;18.400;2023-07-13T14:40:00;3.60;;;2.15;;
74510;SDS011;62991;50.040;18.400;2023-07-13T14:43:01;6.25;;;2.10;;
74510;SDS011;62991;50.040;18.400;2023-07-13T14:46:02;3.22;;;2.42;;
74510;SDS011;62991;50.040;18.400;2023-07-13T14:49:13;4.28;;;1.95;;
74510;SDS011;62991;50.040;18.400;2023-07-13T14:52:35;3.97;;;2.03;;
74510;SDS011;62991;50.040;18.400;2023-07-13T14:55:36;11.07;;;4.95;;
74510;SDS011;62991;50.040;18.400;2023-07-13T14:58:37;3.75;;;2.45;;
74510;SDS011;62991;50.040;18.400;2023-07-13T15:04:41;7.13;;;2.88;;
74510;SDS011;62991;50.040;18.400;2023-07-13T15:07:43;4.53;;;2.00;;
74510;SDS011;62991;50.040;18.400;2023-07-13T15:10:44;3.30;;;1.80;;
74510;SDS011;62991;50.040;18.400;2023-07-13T15:13:45;3.13;;;2.08;;
74510;SDS011;62991;50.040;18.400;2023-07-13T15:16:46;2.72;;;1.83;;
74510;SDS011;62991;50.040;18.400;2023-07-13T15:19:49;3.22;;;2.05;;
74510;SDS011;62991;50.040;18.400;2023-07-13T15:22:50;4.00;;;2.10;;
74510;SDS011;62991;50.040;18.400;2023-07-13T15:25:50;4.07;;;2.22;;
74510;SDS011;62991;50.040;18.400;2023-07-13T15:28:52;4.05;;;1.80;;
74510;SDS011;62991;50.040;18.400;2023-07-13T15:31:53;2.85;;;1.42;;
74510;SDS011;62991;50.040;18.400;2023-07-13T15:34:54;2.13;;;1.35;;
74510;SDS011;62991;50.040;18.400;2023-07-13T15:37:54;5.80;;;1.95;;
74510;SDS011;62991;50.040;18.400;2023-07-13T15:40:55;10.23;;;2.75;;
74510;SDS011;62991;50.040;18.400;2023-07-13T15:43:57;3.20;;;1.77;;
74510;SDS011;62991;50.040;18.400;2023-07-13T15:46:59;4.53;;;2.15;;
74510;SDS011;62991;50.040;18.400;2023-07-13T15:50:00;3.17;;;2.10;;
74510;SDS011;62991;50.040;18.400;2023-07-13T15:53:01;4.70;;;1.95;;
74510;SDS011;62991;50.040;18.400;2023-07-13T15:56:04;3.78;;;2.00;;
74510;SDS011;62991;50.040;18.400;2023-07-13T15:59:16;3.47;;;1.63;;
74510;SDS011;62991;50.040;18.400;2023-07-13T16:02:18;2.35;;;1.60;;
74510;SDS011;62991;50.040;18.400;2023-07-13T16:05:21;3.83;;;1.95;;
74510;SDS011;62991;50.040;18.400;2023-07-13T16:08:25;2.38;;;1.77;;
74510;SDS011;62991;50.040;18.400;2023-07-13T16:11:34;2.42;;;1.40;;
74510;SDS011;62991;50.040;18.400;2023-07-13T16:14:37;2.72;;;1.70;;
74510;SDS011;62991;50.040;18.400;2023-07-13T16:17:39;2.50;;;1.63;;
74510;SDS011;62991;50.040;18.400;2023-07-13T16:20:40;2.53;;;1.75;;
74510;SDS011;62991;50.040;18.400;2023-07-13T16:23:42;2.97;;;1.70;;
74510;SDS011;62991;50.040;18.400;2023-07-13T16:26:45;2.42;;;1.52;;
74510;SDS011;62991;50.040;18.400;2023-07-13T16:29:45;1.85;;;1.50;;
74510;SDS011;62991;50.040;18.400;2023-07-13T16:32:46;3.25;;;2.25;;
74510;SDS011;62991;50.040;18.400;2023-07-13T16:35:47;2.85;;;1.92;;
74510;SDS011;62991;50.040;18.400;2023-07-13T16:38:48;3.75;;;2.15;;
74510;SDS011;62991;50.040;18.400;2023-07-13T16:41:49;3.75;;;2.03;;
74510;SDS011;62991;50.040;18.400;2023-07-13T16:44:54;3.17;;;2.10;;
74510;SDS011;62991;50.040;18.400;2023-07-13T16:47:56;2.38;;;1.92;;
74510;SDS011;62991;50.040;18.400;2023-07-13T16:50:57;2.85;;;1.95;;
74510;SDS011;62991;50.040;18.400;2023-07-13T16:53:58;3.72;;;2.00;;
74510;SDS011;62991;50.040;18.400;2023-07-13T16:57:00;3.30;;;2.22;;
74510;SDS011;62991;50.040;18.400;2023-07-13T17:00:36;4.13;;;2.10;;
74510;SDS011;62991;50.040;18.400;2023-07-13T17:03:31;5.05;;;2.67;;
74510;SDS011;62991;50.040;18.400;2023-07-13T17:06:32;3.75;;;2.15;;
74510;SDS011;62991;50.040;18.400;2023-07-13T17:09:33;4.13;;;2.42;;
74510;SDS011;62991;50.040;18.400;2023-07-13T17:12:34;4.10;;;2.53;;
74510;SDS011;62991;50.040;18.400;2023-07-13T17:15:35;3.90;;;2.47;;
74510;SDS011;62991;50.040;18.400;2023-07-13T17:18:36;4.85;;;2.50;;
74510;SDS011;62991;50.040;18.400;2023-07-13T17:21:37;3.58;;;2.30;;
74510;SDS011;62991;50.040;18.400;2023-07-13T17:24:38;4.93;;;2.60;;
74510;SDS011;62991;50.040;18.400;2023-07-13T17:27:40;4.95;;;2.70;;
74510;SDS011;62991;50.040;18.400;2023-07-13T17:30:42;5.15;;;2.58;;
74510;SDS011;62991;50.040;18.400;2023-07-13T17:33:44;5.00;;;2.70;;
74510;SDS011;62991;50.040;18.400;2023-07-13T17:36:47;3.47;;;2.63;;
74510;SDS011;62991;50.040;18.400;2023-07-13T17:39:47;4.43;;;2.67;;
74510;SDS011;62991;50.040;18.400;2023-07-13T17:42:49;4.75;;;2.80;;
74510;SDS011;62991;50.040;18.400;2023-07-13T17:45:54;4.45;;;2.72;;
74510;SDS011;62991;50.040;18.400;2023-07-13T17:48:56;5.72;;;3.10;;
74510;SDS011;62991;50.040;18.400;2023-07-13T17:51:57;3.97;;;2.88;;
74510;SDS011;62991;50.040;18.400;2023-07-13T17:54:59;6.18;;;3.20;;
74510;SDS011;62991;50.040;18.400;2023-07-13T17:58:02;4.20;;;2.95;;
74510;SDS011;62991;50.040;18.400;2023-07-13T18:01:04;4.65;;;2.70;;
74510;SDS011;62991;50.040;18.400;2023-07-13T18:04:11;5.20;;;2.80;;
74510;SDS011;62991;50.040;18.400;2023-07-13T18:07:16;4.53;;;2.70;;
74510;SDS011;62991;50.040;18.400;2023-07-13T18:10:19;4.32;;;3.03;;
74510;SDS011;62991;50.040;18.400;2023-07-13T18:13:23;4.20;;;2.90;;
74510;SDS011;62991;50.040;18.400;2023-07-13T18:16:27;4.55;;;2.75;;
74510;SDS011;62991;50.040;18.400;2023-07-13T18:19:30;7.35;;;3.03;;
74510;SDS011;62991;50.040;18.400;2023-07-13T18:22:35;6.55;;;3.45;;
74510;SDS011;62991;50.040;18.400;2023-07-13T18:25:36;4.82;;;3.40;;
74510;SDS011;62991;50.040;18.400;2023-07-13T18:28:36;5.65;;;3.50;;
74510;SDS011;62991;50.040;18.400;2023-07-13T18:31:37;6.45;;;3.95;;
74510;SDS011;62991;50.040;18.400;2023-07-13T18:34:39;6.90;;;3.75;;
74510;SDS011;62991;50.040;18.400;2023-07-13T18:37:43;6.63;;;3.90;;
74510;SDS011;62991;50.040;18.400;2023-07-13T18:40:44;8.50;;;4.30;;
74510;SDS011;62991;50.040;18.400;2023-07-13T18:43:46;13.00;;;7.20;;
74510;SDS011;62991;50.040;18.400;2023-07-13T18:46:49;7.80;;;4.90;;
74510;SDS011;62991;50.040;18.400;2023-07-13T18:49:50;8.55;;;4.65;;